Greenfield, Missouri
Current Conditions -  °F | °C
As of 2:52 AM on Friday 31 Oct 2014 (Local Time) from KSGF Reporting Station
Clear Clear  
Wind Chill: 44°   Ceiling: Unl
Heat Index: 49°   Visibility: 10mi
Dew Point: 40°   Wind: 12mph
Humidity: 71%   Direction: 340°NNW
Pressure: 30.14"   Gusts: NA
Location:  37.42°N, 93.84°W
Report Text: KSGF 310752Z 34010KT 10SM CLR 09/04 A3014 RMK AO2 SLP205 T00940044
Loading
Personal Weather Stations






























Interactive Weather Map
Tropical Storm Tracking
New forecast layout! Learn more

10-Day Weather Forecast

Advertisements
Track Severe Weather on mobile